Time;durP1;ratioP1;P1;durP2;ratioP2;P2;SDS_P1;SDS_P2;PMS_P1;PMS_P2;Temp;Humidity;BMP_temperature;BMP_pressure;BME280_temperature;BME280_humidity;BME280_pressure;Samples;Min_cycle;Max_cycle;Signal;HPM_P1;HPM_P2
2023/10/13 00:02:02;;;;;;;4.43;2.47;;;;;;;18.17;69.81;99774.41;4475068;32;32815;-82
2023/10/13 00:04:35;;;;;;;8.02;2.95;;;;;;;18.29;69.24;99778.25;4472687;32;33694;-82
2023/10/13 00:07:08;;;;;;;5.40;2.70;;;;;;;18.39;68.90;99784.84;4463882;32;34026;-82
2023/10/13 00:09:38;;;;;;;5.95;2.58;;;;;;;18.33;68.95;99787.72;4467116;32;33344;-80
2023/10/13 00:12:13;;;;;;;7.47;4.03;;;;;;;18.27;69.22;99786.22;4467402;32;33417;-80
2023/10/13 00:14:45;;;;;;;4.18;2.33;;;;;;;18.17;69.48;99800.66;4474254;32;33737;-81
2023/10/13 00:17:20;;;;;;;3.55;2.12;;;;;;;18.07;69.86;99794.97;4466720;32;34388;-80
2023/10/13 00:19:52;;;;;;;6.00;2.55;;;;;;;18.33;69.01;99795.59;4459363;32;86639;-81
2023/10/13 00:22:22;;;;;;;9.18;3.03;;;;;;;18.36;69.14;99794.59;4461974;32;32938;-81
2023/10/13 00:24:58;;;;;;;3.75;2.47;;;;;;;18.20;69.48;99792.66;4464414;32;34395;-80
2023/10/13 00:27:32;;;;;;;7.40;2.80;;;;;;;18.15;69.68;99794.63;4472298;32;33783;-80
2023/10/13 00:30:17;;;;;;;5.57;2.53;;;;;;;18.00;70.17;99782.13;4461447;32;32264;-80
2023/10/13 00:32:51;;;;;;;5.25;2.95;;;;;;;18.11;70.05;99785.16;4460804;32;33799;-82
2023/10/13 00:35:28;;;;;;;6.72;2.72;;;;;;;17.98;70.57;99784.84;4462630;32;34079;-80
2023/10/13 00:37:59;;;;;;;6.20;3.15;;;;;;;18.10;70.25;99788.72;4461937;32;33635;-81
2023/10/13 00:43:34;;;;;;;11.18;3.53;;;;;;;17.99;70.79;99780.44;4480883;32;33558;-81
2023/10/13 00:46:12;;;;;;;3.85;2.40;;;;;;;18.00;70.78;99783.00;4463327;32;33638;-81
2023/10/13 00:48:51;;;;;;;6.25;2.87;;;;;;;17.95;70.89;99779.69;4460057;32;33995;-81
2023/10/13 00:51:32;;;;;;;5.25;2.92;;;;;;;18.05;70.63;99780.16;4460271;32;33350;-81
2023/10/13 00:54:07;;;;;;;6.50;3.50;;;;;;;18.12;70.28;99786.84;4460110;32;34365;-82
2023/10/13 00:56:40;;;;;;;6.75;2.72;;;;;;;18.07;70.29;99780.94;4475729;32;33904;-81
2023/10/13 00:59:13;;;;;;;5.97;3.15;;;;;;;18.26;69.47;99778.41;4473157;32;33836;-82
2023/10/13 01:01:43;;;;;;;6.45;3.03;;;;;;;18.22;69.56;99782.06;4463931;32;32693;-81
2023/10/13 01:04:14;;;;;;;10.23;2.78;;;;;;;18.16;69.77;99779.72;4463072;32;33361;-80
2023/10/13 01:06:43;;;;;;;4.85;2.50;;;;;;;18.17;69.76;99777.03;4464498;32;33260;-82
2023/10/13 01:09:13;;;;;;;7.60;3.22;;;;;;;18.10;69.95;99772.97;4467063;32;34387;-81
2023/10/13 01:11:42;;;;;;;4.73;2.60;;;;;;;17.98;70.65;99773.50;4467403;32;32031;-82
2023/10/13 01:14:14;;;;;;;4.20;2.70;;;;;;;18.25;69.62;99774.06;4461909;32;33075;-82
2023/10/13 01:16:44;;;;;;;4.07;2.58;;;;;;;18.24;69.56;99764.47;4462480;32;33761;-81
2023/10/13 01:19:14;;;;;;;8.73;3.53;;;;;;;18.17;70.01;99766.53;4459153;32;33448;-81
2023/10/13 01:21:42;;;;;;;6.62;2.85;;;;;;;18.25;69.60;99768.81;4470919;32;32574;-81
2023/10/13 01:24:16;;;;;;;5.85;3.22;;;;;;;18.23;69.63;99773.28;4469150;32;34331;-82
2023/10/13 01:26:44;;;;;;;5.37;3.42;;;;;;;18.07;70.50;99759.94;4460757;32;33756;-83
2023/10/13 01:29:15;;;;;;;6.47;2.60;;;;;;;18.00;70.93;99766.38;4470733;32;34413;-80
2023/10/13 01:31:47;;;;;;;4.47;2.25;;;;;;;18.17;69.98;99761.28;4473076;32;33899;-82
2023/10/13 01:34:21;;;;;;;6.85;3.85;;;;;;;18.14;69.83;99761.38;4475046;32;33065;-81
2023/10/13 01:36:51;;;;;;;4.53;2.70;;;;;;;18.39;68.90;99774.31;4459899;32;33663;-80
2023/10/13 01:39:26;;;;;;;6.85;2.85;;;;;;;18.33;68.92;99775.44;4466976;32;33601;-80
2023/10/13 01:41:55;;;;;;;6.15;2.50;;;;;;;18.14;69.59;99766.66;4459882;32;32688;-82
2023/10/13 01:44:30;;;;;;;7.18;3.17;;;;;;;18.17;69.49;99761.28;4468198;32;33688;-81
2023/10/13 01:47:05;;;;;;;4.95;2.70;;;;;;;17.99;69.96;99762.91;4471917;32;33728;-81
2023/10/13 01:49:41;;;;;;;7.37;2.97;;;;;;;18.08;69.62;99765.16;4466824;32;33945;-82
2023/10/13 01:52:15;;;;;;;6.22;2.40;;;;;;;18.27;68.69;99765.22;4459193;32;34322;-81
2023/10/13 01:54:44;;;;;;;7.25;2.83;;;;;;;18.13;69.14;99772.81;4459014;32;33024;-81
2023/10/13 01:57:17;;;;;;;6.20;2.45;;;;;;;18.29;68.27;99780.87;4465758;32;34807;-82
2023/10/13 01:59:47;;;;;;;5.60;2.70;;;;;;;18.04;69.31;99783.72;4471631;32;34135;-82
2023/10/13 02:02:26;;;;;;;6.87;2.72;;;;;;;18.12;69.10;99790.34;4463309;32;33059;-80
2023/10/13 02:04:56;;;;;;;5.93;2.67;;;;;;;18.16;68.62;99780.56;4459488;32;33556;-82
2023/10/13 02:07:29;;;;;;;5.35;2.65;;;;;;;18.20;68.62;99784.78;4459184;32;33579;-82
2023/10/13 02:10:03;;;;;;;5.07;2.42;;;;;;;18.12;68.85;99782.47;4464835;32;33475;-81
2023/10/13 02:12:42;;;;;;;3.55;2.00;;;;;;;18.04;69.07;99773.22;4459121;32;32367;-82
2023/10/13 02:15:13;;;;;;;;;;;;;;;18.09;68.92;99768.62;4460474;32;33584;-81
2023/10/13 02:17:41;;;;;;;3.47;1.70;;;;;;;18.06;69.17;99769.59;4457412;32;35167;-82
2023/10/13 02:20:14;;;;;;;3.03;1.80;;;;;;;18.18;68.57;99777.88;4464284;32;33610;-82
2023/10/13 02:22:48;;;;;;;3.20;1.87;;;;;;;18.14;68.79;99774.53;4467338;32;34174;-82
2023/10/13 02:25:35;;;;;;;5.03;2.35;;;;;;;18.21;68.56;99775.13;4469818;32;34088;-82
2023/10/13 02:28:08;;;;;;;4.20;2.10;;;;;;;18.21;68.46;99769.88;4461371;32;33649;-81
2023/10/13 02:30:44;;;;;;;6.68;2.20;;;;;;;18.44;67.26;99774.13;4461922;32;33536;-81
2023/10/13 02:33:13;;;;;;;4.72;2.00;;;;;;;18.37;67.61;99775.31;4472353;32;33068;-80
2023/10/13 02:35:42;;;;;;;4.85;2.55;;;;;;;18.37;67.47;99770.91;4474738;32;33509;-82
2023/10/13 02:38:15;;;;;;;4.22;2.05;;;;;;;18.42;67.24;99779.44;4475872;32;34942;-80
2023/10/13 02:40:44;;;;;;;5.85;2.67;;;;;;;18.33;67.47;99780.69;4461307;32;34135;-80
2023/10/13 02:43:14;;;;;;;6.97;2.97;;;;;;;18.22;68.03;99788.19;4460946;32;33103;-81
2023/10/13 02:45:43;;;;;;;11.40;3.60;;;;;;;18.50;66.84;99792.22;4468571;32;34218;-82
2023/10/13 02:48:16;;;;;;;3.42;1.85;;;;;;;18.43;67.15;99785.53;4465737;32;34010;-81
2023/10/13 02:50:45;;;;;;;7.28;2.15;;;;;;;18.43;67.19;99788.16;4464102;32;34141;-82
2023/10/13 02:53:18;;;;;;;5.00;1.92;;;;;;;18.40;67.11;99791.78;4461337;32;33081;-82
2023/10/13 02:55:52;;;;;;;3.42;1.85;;;;;;;18.24;67.58;99799.50;4469479;32;33967;-80
2023/10/13 02:58:21;;;;;;;3.75;2.05;;;;;;;18.40;67.20;99804.91;4469433;32;33860;-81
2023/10/13 03:00:49;;;;;;;4.12;1.90;;;;;;;18.32;67.50;99809.66;4464971;32;33381;-80
2023/10/13 03:03:19;;;;;;;5.45;1.87;;;;;;;18.36;67.42;99805.09;4468520;32;33117;-80
2023/10/13 03:05:48;;;;;;;7.93;3.03;;;;;;;18.20;68.22;99812.81;4461882;32;33712;-81
2023/10/13 03:08:27;;;;;;;3.62;1.70;;;;;;;18.25;68.04;99808.22;4481310;32;33674;-80
2023/10/13 03:10:59;;;;;;;6.05;2.30;;;;;;;18.38;67.63;99816.41;4467998;32;34446;-82
2023/10/13 03:13:29;;;;;;;4.68;2.70;;;;;;;18.37;68.00;99812.09;4469176;32;32884;-81
2023/10/13 03:16:04;;;;;;;7.80;2.97;;;;;;;18.42;67.91;99812.75;4465040;32;34769;-81
2023/10/13 03:18:34;;;;;;;9.52;2.70;;;;;;;18.29;68.17;99804.50;4465725;32;33191;-81
2023/10/13 03:21:03;;;;;;;6.97;1.98;;;;;;;18.49;67.53;99807.12;4470972;32;34367;-81
2023/10/13 03:23:38;;;;;;;6.28;2.37;;;;;;;18.51;67.68;99801.84;4461326;32;34033;-81
2023/10/13 03:26:12;;;;;;;5.65;2.53;;;;;;;18.45;67.94;99797.69;4469796;32;33898;-80
2023/10/13 03:28:40;;;;;;;9.23;4.00;;;;;;;18.43;68.16;99791.62;4462763;32;34418;-82
2023/10/13 03:31:17;;;;;;;6.03;2.40;;;;;;;18.40;68.30;99783.91;4466123;32;33714;-83
2023/10/13 03:33:48;;;;;;;5.95;2.25;;;;;;;18.58;67.76;99784.88;4480665;32;33560;-81
2023/10/13 03:36:55;;;;;;;4.12;2.25;;;;;;;18.61;67.74;99791.78;4464346;32;33171;-81
2023/10/13 03:39:07;;;;;;;3.33;2.05;;;;;;;18.32;68.88;99781.63;4465137;32;34558;-82
2023/10/13 03:41:39;;;;;;;7.47;2.97;;;;;;;18.40;68.75;99775.16;4469111;32;33835;-81
2023/10/13 03:44:14;;;;;;;4.97;2.53;;;;;;;18.22;69.62;99775.06;4461036;32;33099;-82
2023/10/13 03:46:47;;;;;;;5.68;3.08;;;;;;;18.07;70.37;99768.69;4470744;32;34041;-81
2023/10/13 03:49:21;;;;;;;5.00;2.72;;;;;;;18.07;70.86;99755.56;4460250;32;33538;-81
2023/10/13 03:51:54;;;;;;;4.65;2.78;;;;;;;18.38;69.78;99751.59;4461031;32;34624;-82
2023/10/13 03:54:23;;;;;;;4.45;2.47;;;;;;;18.49;69.10;99759.84;4459974;32;33499;-82
2023/10/13 03:56:56;;;;;;;7.30;2.95;;;;;;;18.43;69.58;99762.75;4461138;32;33311;-81
2023/10/13 03:59:34;;;;;;;3.72;2.12;;;;;;;18.24;70.09;99754.84;4475044;32;33747;-83
2023/10/13 04:02:11;;;;;;;4.30;2.47;;;;;;;18.03;70.83;99759.25;4461396;32;34410;-81
2023/10/13 04:04:48;;;;;;;5.80;2.75;;;;;;;18.10;70.69;99751.97;4461721;32;33523;-81
2023/10/13 04:15:43;;;;;;;5.70;2.67;;;;;;;17.82;71.84;99739.16;4452377;32;33214;-81
2023/10/13 04:18:34;;;;;;;5.40;2.75;;;;;;;17.91;71.14;99739.63;4464385;32;33507;-81
2023/10/13 04:21:18;;;;;;;4.93;2.12;;;;;;;17.94;71.23;99748.28;4465505;32;33982;-80
2023/10/13 04:26:42;;;;;;;5.32;2.55;;;;;;;18.04;70.33;99746.97;4469201;32;34109;-82
2023/10/13 04:29:27;;;;;;;5.60;3.00;;;;;;;18.02;70.06;99738.28;4464311;32;33487;-80
2023/10/13 04:32:00;;;;;;;4.72;2.58;;;;;;;17.85;70.84;99742.50;4469037;32;33666;-80
2023/10/13 04:34:34;;;;;;;5.15;2.35;;;;;;;18.17;69.42;99753.41;4470596;32;34608;-80
2023/10/13 04:37:23;;;;;;;3.60;2.15;;;;;;;18.08;69.89;99757.28;4460824;32;34210;-80
2023/10/13 04:39:57;;;;;;;6.68;2.72;;;;;;;18.11;69.26;99753.66;4466226;32;33574;-81
2023/10/13 04:42:50;;;;;;;4.12;2.28;;;;;;;17.88;70.50;99739.75;4459976;32;33579;-80
2023/10/13 04:48:28;;;;;;;6.70;3.00;;;;;;;18.07;69.85;99737.19;4474611;32;32976;-81
2023/10/13 04:54:11;;;;;;;5.15;2.87;;;;;;;18.02;70.50;99754.03;4445896;32;33904;-82
2023/10/13 04:56:59;;;;;;;6.10;3.62;;;;;;;18.02;70.54;99761.94;4464683;32;33632;-81
2023/10/13 05:00:10;;;;;;;6.12;2.70;;;;;;;18.17;70.37;99761.28;4460734;32;33937;-80
2023/10/13 05:02:43;;;;;;;5.32;3.03;;;;;;;18.18;70.06;99760.34;4463167;32;33414;-80
2023/10/13 05:05:45;;;;;;;11.07;3.87;;;;;;;18.48;68.69;99765.16;4467540;32;34521;-81
2023/10/13 05:45:23;;;;;;;6.72;2.70;;;;;;;18.47;69.48;99829.16;4462682;32;33108;-81
2023/10/13 05:47:53;;;;;;;6.43;3.53;;;;;;;18.18;70.42;99833.03;4464574;32;35126;-80
2023/10/13 06:29:30;;;;;;;5.57;3.40;;;;;;;18.40;71.39;99864.47;4415476;32;34078;-81
2023/10/13 06:32:01;;;;;;;8.45;3.35;;;;;;;18.51;71.17;99873.63;4461902;32;34195;-81
2023/10/13 06:34:42;;;;;;;8.30;3.10;;;;;;;18.80;69.27;99882.03;4467992;32;34330;-82
2023/10/13 06:37:23;;;;;;;;;;;;;;;18.52;70.43;99883.19;4467617;32;33402;-82
2023/10/13 06:39:52;;;;;;;6.28;3.33;;;;;;;18.46;71.05;99878.22;4471072;32;32990;-81
2023/10/13 06:42:26;;;;;;;8.35;3.17;;;;;;;18.43;71.27;99890.59;4469329;32;33469;-80
2023/10/13 06:44:56;;;;;;;6.18;3.28;;;;;;;18.69;70.36;99884.25;4456553;32;34397;-80
2023/10/13 06:47:28;;;;;;;4.97;3.00;;;;;;;18.58;70.75;99884.72;4462300;32;34001;-80
2023/10/13 06:49:57;;;;;;;9.35;3.00;;;;;;;18.59;70.89;99875.06;4466890;32;33491;-81
2023/10/13 06:52:29;;;;;;;6.65;3.05;;;;;;;18.74;70.46;99884.88;4467895;32;33965;-81
2023/10/13 06:55:03;;;;;;;7.62;3.17;;;;;;;18.92;69.72;99885.91;4474774;32;33608;-80
2023/10/13 06:57:37;;;;;;;6.97;3.40;;;;;;;18.64;70.58;99891.47;4464901;32;33389;-80
2023/10/13 07:00:11;;;;;;;4.60;2.40;;;;;;;18.75;70.67;99903.22;4461890;32;33175;-81
2023/10/13 07:02:40;;;;;;;5.10;2.62;;;;;;;18.94;69.83;99905.06;4480933;32;34495;-80
2023/10/13 07:05:11;;;;;;;4.53;2.40;;;;;;;19.05;68.70;99908.09;4461024;32;33631;-82
2023/10/13 07:07:41;;;;;;;5.32;2.67;;;;;;;19.05;68.76;99909.87;4461551;32;34341;-80
2023/10/13 07:10:11;;;;;;;6.45;3.17;;;;;;;19.07;68.59;99911.50;4461490;32;34705;-80
2023/10/13 07:12:43;;;;;;;6.45;2.80;;;;;;;18.90;68.93;99912.25;4466920;32;34958;-81
2023/10/13 07:15:19;;;;;;;6.55;2.70;;;;;;;18.95;69.25;99912.91;4465052;32;33832;-80
2023/10/13 07:17:54;;;;;;;6.93;2.42;;;;;;;18.96;69.54;99909.34;4467826;32;33696;-81
2023/10/13 07:20:32;;;;;;;5.85;2.92;;;;;;;18.86;69.91;99915.06;4463487;32;33893;-81
2023/10/13 07:23:04;;;;;;;7.57;2.55;;;;;;;18.82;70.31;99903.81;4474210;32;33606;-81
2023/10/13 07:25:37;;;;;;;;;;;;;;;18.90;70.23;99912.25;4483410;32;33489;-82
2023/10/13 07:28:09;;;;;;;6.45;2.15;;;;;;;18.89;70.47;99915.78;4479859;32;33613;-80
2023/10/13 07:30:42;;;;;;;9.75;2.97;;;;;;;19.04;70.23;99910.78;4461264;32;33831;-82
2023/10/13 07:33:13;;;;;;;6.35;2.75;;;;;;;19.06;70.58;99916.81;4460825;32;34825;-80
2023/10/13 07:35:42;;;;;;;5.78;2.45;;;;;;;19.21;70.30;99912.66;4463383;32;33142;-81
2023/10/13 07:38:11;;;;;;;10.80;3.33;;;;;;;19.27;70.50;99913.22;4473058;32;33558;-80
2023/10/13 07:40:49;;;;;;;5.75;2.95;;;;;;;19.51;69.75;99908.63;4466380;32;33173;-81
2023/10/13 07:43:22;;;;;;;4.37;2.17;;;;;;;19.57;69.69;99921.50;4467236;32;33590;-81
2023/10/13 07:45:58;;;;;;;5.55;2.78;;;;;;;19.80;68.42;99919.59;4466593;32;33998;-81
2023/10/13 07:48:27;;;;;;;6.18;2.83;;;;;;;19.71;68.93;99915.59;4467173;32;34223;-82
2023/10/13 07:51:04;;;;;;;7.57;2.83;;;;;;;19.70;69.13;99913.91;4482027;32;33483;-81
2023/10/13 07:53:35;;;;;;;5.35;3.05;;;;;;;19.79;68.91;99913.47;4467679;32;34399;-80
2023/10/13 07:56:05;;;;;;;5.50;2.47;;;;;;;19.81;68.62;99913.38;4472572;32;34310;-80
2023/10/13 07:58:47;;;;;;;5.53;2.55;;;;;;;19.78;68.78;99914.38;4464499;32;33793;-80
2023/10/13 08:01:19;;;;;;;6.78;3.03;;;;;;;19.86;68.63;99915.78;4461041;32;34182;-80
2023/10/13 08:03:57;;;;;;;7.20;2.55;;;;;;;20.05;67.87;99913.97;4470015;32;34459;-82
2023/10/13 08:06:34;;;;;;;8.50;3.08;;;;;;;20.20;66.55;99913.25;4460702;32;33907;-81
2023/10/13 08:09:08;;;;;;;6.65;3.05;;;;;;;20.11;67.17;99912.84;4461059;32;34198;-81
2023/10/13 08:11:38;;;;;;;8.95;3.25;;;;;;;20.11;67.63;99915.47;4460774;32;33319;-81
2023/10/13 08:14:22;;;;;;;8.45;2.92;;;;;;;20.29;67.32;99904.00;4461183;32;34587;-81
2023/10/13 08:17:10;;;;;;;;;;;;;;;20.37;67.14;99904.50;4460140;32;34571;-81
2023/10/13 08:19:44;;;;;;;6.70;2.50;;;;;;;20.49;67.07;99905.66;4466658;32;34782;-81
2023/10/13 08:25:24;;;;;;;4.78;2.60;;;;;;;20.61;66.63;99898.94;4462002;32;34371;-81
2023/10/13 08:30:53;;;;;;;4.55;2.50;;;;;;;20.82;65.89;99894.34;4467499;32;33348;-82
2023/10/13 08:33:27;;;;;;;6.68;2.80;;;;;;;21.03;65.48;99902.91;4464963;32;33651;-81
2023/10/13 08:36:17;;;;;;;8.05;4.32;;;;;;;21.04;64.63;99901.97;4466722;32;34449;-81
2023/10/13 08:38:51;;;;;;;9.48;4.55;;;;;;;21.14;64.01;99900.53;4460859;32;34087;-81
2023/10/13 08:41:29;;;;;;;9.75;4.78;;;;;;;21.13;64.29;99911.19;4463156;32;33684;-82
2023/10/13 08:44:09;;;;;;;11.52;4.18;;;;;;;21.27;64.04;99919.22;4462711;32;33010;-81
2023/10/13 08:47:03;;;;;;;9.93;4.57;;;;;;;21.35;64.08;99922.28;4468975;32;34207;-82
2023/10/13 08:49:39;;;;;;;7.20;3.65;;;;;;;21.44;63.56;99923.63;4465357;32;33417;-81
2023/10/13 08:55:38;;;;;;;7.15;4.10;;;;;;;21.63;63.37;99919.03;4471304;32;34224;-82
2023/10/13 08:58:13;;;;;;;6.03;3.47;;;;;;;21.66;63.51;99924.13;4466775;32;33330;-81
2023/10/13 09:01:11;;;;;;;9.45;4.53;;;;;;;21.91;62.65;99923.59;4468648;32;33571;-81
2023/10/13 09:03:42;;;;;;;12.63;2.92;;;;;;;21.93;62.29;99932.28;4469077;32;33653;-83
2023/10/13 09:06:19;;;;;;;12.03;3.93;;;;;;;21.99;62.03;99923.19;4464718;32;33888;-81
2023/10/13 09:11:48;;;;;;;7.95;4.50;;;;;;;22.16;61.59;99923.06;4466075;32;32864;-81
2023/10/13 09:17:12;;;;;;;8.73;4.32;;;;;;;22.25;60.63;99916.41;4469536;32;34137;-82
2023/10/13 09:19:47;;;;;;;6.78;3.78;;;;;;;22.67;59.14;99916.66;4476531;32;34229;-81
2023/10/13 09:22:35;;;;;;;8.05;4.45;;;;;;;22.61;59.46;99911.72;4474105;32;33668;-81
2023/10/13 09:25:05;;;;;;;5.65;2.90;;;;;;;22.81;58.94;99919.31;4467892;32;33627;-81
2023/10/13 09:27:37;;;;;;;9.32;4.53;;;;;;;22.61;59.81;99914.34;4481672;32;33372;-81
2023/10/13 09:30:09;;;;;;;8.57;4.57;;;;;;;22.77;59.78;99915.16;4477383;32;33395;-81
2023/10/13 09:32:46;;;;;;;7.68;4.12;;;;;;;22.89;59.25;99914.41;4478021;32;33944;-82
2023/10/13 09:35:21;;;;;;;10.60;5.50;;;;;;;23.11;58.85;99921.91;4463580;32;33778;-82
2023/10/13 09:37:51;;;;;;;10.57;4.87;;;;;;;23.12;58.47;99914.81;4465666;32;33065;-81
2023/10/13 09:40:25;;;;;;;12.95;5.07;;;;;;;23.14;58.94;99926.16;4483155;32;32888;-81
2023/10/13 09:42:55;;;;;;;9.75;4.45;;;;;;;23.11;58.62;99921.06;4472749;32;34458;-80
2023/10/13 09:45:32;;;;;;;13.30;5.62;;;;;;;23.15;58.71;99917.31;4472098;32;33163;-82
2023/10/13 09:48:06;;;;;;;11.05;4.37;;;;;;;23.31;57.77;99917.19;4462290;32;33664;-81
2023/10/13 09:50:41;;;;;;;11.98;5.20;;;;;;;23.12;58.00;99920.13;4471407;32;34252;-81
2023/10/13 09:53:10;;;;;;;9.68;4.85;;;;;;;23.19;57.93;99921.44;4480245;32;33093;-80
2023/10/13 09:55:44;;;;;;;7.05;3.28;;;;;;;23.23;58.44;99919.47;4462030;32;33557;-81
2023/10/13 09:58:14;;;;;;;7.15;3.53;;;;;;;23.40;57.66;99914.81;4468444;32;33778;-82
2023/10/13 10:00:49;;;;;;;9.98;4.68;;;;;;;23.47;57.61;99917.09;4461968;32;33695;-81
2023/10/13 10:03:30;;;;;;;10.80;4.18;;;;;;;23.47;57.44;99917.09;4466254;32;33729;-81
2023/10/13 10:06:06;;;;;;;9.63;4.50;;;;;;;23.63;56.49;99908.06;4474887;32;33834;-81
2023/10/13 10:08:34;;;;;;;6.90;3.72;;;;;;;23.51;56.63;99906.19;4469130;32;34053;-81
2023/10/13 10:11:28;;;;;;;7.72;4.78;;;;;;;23.36;57.40;99907.16;4467107;32;34201;-82
2023/10/13 10:14:08;;;;;;;7.85;3.35;;;;;;;23.49;57.17;99905.44;4467865;32;33709;-81
2023/10/13 10:16:46;;;;;;;9.52;5.07;;;;;;;23.42;57.36;99904.97;4468253;32;34177;-81
2023/10/13 10:19:16;;;;;;;14.38;4.30;;;;;;;23.31;57.68;99904.78;4469673;32;33709;-81
2023/10/13 10:21:48;;;;;;;7.32;3.97;;;;;;;23.41;57.57;99899.75;4464833;32;34326;-82
2023/10/13 10:24:29;;;;;;;10.65;4.37;;;;;;;23.28;58.16;99896.19;4460453;32;33719;-82
2023/10/13 10:26:58;;;;;;;11.57;3.83;;;;;;;23.15;57.98;99890.84;4461056;32;33635;-81
2023/10/13 10:29:27;;;;;;;10.57;3.85;;;;;;;23.37;57.82;99893.81;4461880;32;33441;-82
2023/10/13 10:31:55;;;;;;;6.78;3.72;;;;;;;23.48;57.22;99887.84;4467244;32;33984;-83
2023/10/13 10:34:32;;;;;;;7.87;3.85;;;;;;;23.58;57.58;99880.16;4461687;32;33488;-81
2023/10/13 10:37:08;;;;;;;6.43;3.95;;;;;;;23.62;57.67;99879.03;4461799;32;34583;-82
2023/10/13 10:39:45;;;;;;;6.78;3.92;;;;;;;23.54;57.30;99876.03;4465081;32;33499;-81
2023/10/13 10:42:17;;;;;;;9.75;3.60;;;;;;;23.75;56.34;99869.38;4464679;32;33387;-81
2023/10/13 10:44:47;;;;;;;7.30;3.33;;;;;;;23.62;56.89;99871.06;4468010;32;33916;-82
2023/10/13 10:47:30;;;;;;;9.27;4.00;;;;;;;23.75;56.71;99861.44;4465114;32;32958;-80
2023/10/13 10:50:00;;;;;;;7.28;3.47;;;;;;;23.83;56.80;99858.28;4465533;32;33726;-81
2023/10/13 10:52:37;;;;;;;8.07;3.92;;;;;;;24.07;56.18;99845.22;4470043;32;33670;-80
2023/10/13 10:55:13;;;;;;;12.68;3.45;;;;;;;24.26;55.73;99847.47;4471642;32;33602;-82
2023/10/13 10:57:43;;;;;;;11.05;3.75;;;;;;;24.22;56.29;99851.28;4473752;32;34191;-82
2023/10/13 11:00:20;;;;;;;8.85;4.32;;;;;;;24.12;56.69;99836.94;4472670;32;33163;-80
2023/10/13 11:02:55;;;;;;;6.65;3.80;;;;;;;24.24;56.79;99844.91;4466273;32;33681;-81
2023/10/13 11:05:32;;;;;;;7.62;4.18;;;;;;;24.47;56.08;99856.63;4476589;32;34302;-80
2023/10/13 11:08:09;;;;;;;7.62;3.62;;;;;;;24.66;54.92;99848.25;4470824;32;33792;-81
2023/10/13 11:10:47;;;;;;;10.00;3.37;;;;;;;24.55;55.14;99842.00;4472236;32;33448;-80
2023/10/13 11:13:21;;;;;;;6.25;3.25;;;;;;;24.81;54.91;99845.50;4477978;32;33805;-81
2023/10/13 11:15:51;;;;;;;8.30;3.47;;;;;;;24.67;55.15;99844.66;4470639;32;33896;-80
2023/10/13 11:18:33;;;;;;;8.38;4.18;;;;;;;24.78;55.40;99843.06;4465264;32;33696;-79
2023/10/13 11:21:06;;;;;;;7.80;3.78;;;;;;;24.95;54.78;99834.75;4462004;32;33025;-79
2023/10/13 11:23:39;;;;;;;8.68;2.97;;;;;;;25.00;55.03;99834.44;4467910;32;34280;-79
2023/10/13 11:26:08;;;;;;;8.35;3.25;;;;;;;25.20;54.30;99835.69;4470128;32;33832;-81
2023/10/13 11:28:38;;;;;;;7.68;3.37;;;;;;;25.08;54.56;99830.28;4466495;32;34082;-80
2023/10/13 11:31:13;;;;;;;9.10;3.40;;;;;;;25.23;54.01;99817.75;4467949;32;33120;-79
2023/10/13 11:33:49;;;;;;;6.95;3.35;;;;;;;25.40;53.35;99829.81;4467270;32;33782;-79
2023/10/13 11:36:22;;;;;;;7.47;3.10;;;;;;;25.86;52.92;99820.28;4472529;32;33915;-79
2023/10/13 11:38:57;;;;;;;13.82;3.67;;;;;;;25.73;50.87;99820.31;4471861;32;34198;-80
2023/10/13 11:41:33;;;;;;;3.95;2.08;;;;;;;25.99;51.13;99812.25;4466640;32;33777;-79
2023/10/13 11:44:23;;;;;;;10.88;3.72;;;;;;;26.42;50.60;99812.47;4464003;32;33501;-81
2023/10/13 11:47:07;;;;;;;6.80;2.58;;;;;;;26.50;50.81;99819.84;4468950;32;33723;-79
2023/10/13 11:49:37;;;;;;;8.18;2.65;;;;;;;26.57;48.56;99815.78;4466967;32;34511;-79
2023/10/13 11:52:19;;;;;;;8.30;2.83;;;;;;;26.66;49.63;99812.41;4470105;32;32502;-80
2023/10/13 11:54:49;;;;;;;6.25;2.80;;;;;;;26.92;49.46;99820.16;4467430;32;33653;-79
2023/10/13 11:57:19;;;;;;;6.45;2.92;;;;;;;26.93;48.77;99821.84;4479227;32;33930;-80
2023/10/13 11:59:56;;;;;;;8.00;2.20;;;;;;;26.96;49.06;99811.78;4466197;32;33706;-81
2023/10/13 12:05:17;;;;;;;10.50;3.25;;;;;;;27.19;48.33;99809.97;4472105;32;33575;-81
2023/10/13 12:07:52;;;;;;;5.40;2.83;;;;;;;27.34;47.57;99807.06;4466435;32;34805;-80
2023/10/13 12:10:34;;;;;;;8.15;2.45;;;;;;;27.19;46.59;99806.47;4467292;32;33707;-80
2023/10/13 12:13:08;;;;;;;10.45;2.10;;;;;;;27.22;46.00;99796.41;4464679;32;32931;-79
2023/10/13 12:15:51;;;;;;;8.20;3.05;;;;;;;27.30;45.20;99792.28;4467066;32;34146;-79
2023/10/13 12:18:22;;;;;;;6.82;2.25;;;;;;;27.42;46.06;99785.94;4468021;32;34477;-79
2023/10/13 12:20:51;;;;;;;4.35;2.08;;;;;;;27.49;43.62;99791.62;4476804;32;33839;-81
2023/10/13 12:23:29;;;;;;;4.93;2.10;;;;;;;27.57;43.42;99794.50;4462383;32;33337;-80
2023/10/13 12:26:06;;;;;;;5.57;1.85;;;;;;;27.54;43.57;99792.09;4467322;32;34152;-79
2023/10/13 12:28:40;;;;;;;5.72;2.85;;;;;;;27.50;44.74;99785.31;4467136;32;35011;-79
2023/10/13 12:31:11;;;;;;;4.97;2.22;;;;;;;27.62;43.90;99779.00;4468675;32;33947;-80
2023/10/13 12:33:41;;;;;;;6.03;2.33;;;;;;;27.58;44.85;99781.06;4472119;32;34185;-81
2023/10/13 12:36:11;;;;;;;7.87;2.12;;;;;;;27.62;42.96;99784.31;4467179;32;34330;-80
2023/10/13 12:48:55;;;;;;;7.87;2.10;;;;;;;27.51;43.40;99782.53;4470083;32;34054;-80
2023/10/13 12:50:34;;;;;;;3.53;1.60;;;;;;;27.42;40.50;99772.63;4467147;32;34483;-80
2023/10/13 12:53:03;;;;;;;4.32;1.23;;;;;;;27.50;40.08;99764.87;4464912;32;33628;-80
2023/10/13 12:55:32;;;;;;;3.90;1.58;;;;;;;27.42;39.89;99764.63;4460150;32;33792;-80
2023/10/13 12:58:04;;;;;;;3.83;1.25;;;;;;;27.26;40.44;99765.06;4459974;32;34035;-81
2023/10/13 13:00:33;;;;;;;4.47;1.52;;;;;;;27.33;40.20;99762.72;4467754;32;34110;-80
2023/10/13 13:03:11;;;;;;;4.68;1.52;;;;;;;27.20;40.53;99761.06;4474182;32;33734;-81
2023/10/13 13:05:44;;;;;;;4.32;1.52;;;;;;;27.17;41.47;99757.78;4463377;32;33134;-80
2023/10/13 13:08:21;;;;;;;6.03;1.90;;;;;;;27.22;42.43;99753.78;4460690;32;33700;-79
2023/10/13 13:10:52;;;;;;;3.22;1.45;;;;;;;27.07;42.55;99747.03;4447745;32;32364;-80
2023/10/13 13:13:25;;;;;;;3.90;1.42;;;;;;;26.93;43.14;99748.13;4471168;32;34541;-81
2023/10/13 13:15:54;;;;;;;3.78;1.37;;;;;;;26.73;43.63;99747.09;4472774;32;32806;-79
2023/10/13 13:18:23;;;;;;;4.40;1.37;;;;;;;26.81;43.25;99749.13;4460387;32;33224;-79
2023/10/13 13:20:55;;;;;;;2.83;1.15;;;;;;;26.67;43.72;99752.03;4463029;32;33972;-79
2023/10/13 13:23:25;;;;;;;3.97;0.90;;;;;;;26.57;43.74;99752.75;4468679;32;34684;-79
2023/10/13 13:25:56;;;;;;;2.53;1.12;;;;;;;26.60;43.22;99746.34;4474030;32;33417;-81
2023/10/13 13:28:29;;;;;;;2.40;1.27;;;;;;;26.50;42.57;99740.03;4471940;32;33703;-79
2023/10/13 13:30:58;;;;;;;5.03;1.20;;;;;;;26.62;42.24;99741.75;4459195;32;33679;-80
2023/10/13 13:33:33;;;;;;;3.95;1.33;;;;;;;26.47;43.16;99745.59;4471078;32;34500;-79
2023/10/13 13:36:04;;;;;;;2.08;1.10;;;;;;;26.57;41.97;99744.78;4457152;32;32435;-80
2023/10/13 13:38:36;;;;;;;;;;;;;;;26.62;41.80;99741.75;4466047;32;33278;-79
2023/10/13 13:41:09;;;;;;;2.25;1.27;;;;;;;26.68;41.73;99749.25;4452668;32;33010;-81
2023/10/13 13:43:50;;;;;;;2.75;1.30;;;;;;;26.72;40.54;99742.72;4466642;32;33944;-81
2023/10/13 13:46:24;;;;;;;4.80;1.85;;;;;;;26.81;41.23;99739.31;4461069;32;33433;-79
2023/10/13 13:48:59;;;;;;;3.28;1.42;;;;;;;26.70;40.91;99739.34;4465697;32;35259;-81
2023/10/13 13:51:29;;;;;;;3.90;1.83;;;;;;;26.80;42.15;99742.13;4480870;32;34571;-82
2023/10/13 13:53:58;;;;;;;3.63;1.33;;;;;;;26.65;41.68;99730.03;4480224;32;34435;-81
2023/10/13 13:56:31;;;;;;;4.85;1.67;;;;;;;26.82;41.25;99732.22;4468853;32;32374;-81
2023/10/13 13:59:07;;;;;;;4.93;1.70;;;;;;;26.83;40.30;99731.22;4458884;32;33572;-80
2023/10/13 14:01:37;;;;;;;3.15;1.50;;;;;;;26.84;40.29;99737.38;4469602;32;33553;-80
2023/10/13 14:04:07;;;;;;;4.15;1.40;;;;;;;26.72;40.01;99736.53;4467549;32;34329;-80
2023/10/13 14:06:37;;;;;;;3.23;1.40;;;;;;;26.89;40.32;99730.72;4460089;32;33995;-79
2023/10/13 14:09:14;;;;;;;3.70;1.83;;;;;;;26.78;40.20;99728.94;4461155;32;32940;-79
2023/10/13 14:14:33;;;;;;;7.68;1.83;;;;;;;26.68;41.50;99721.81;4460165;32;34608;-80